Frankfort, KY (40619)

1:21 PM EST on December 20, 2014 (GMT -0500)
Capital City | Change Station
CLOSE
Current Station
Airport
Location: Frankfort,
Elevation: 804 ft
Nearby Weather Stations

Elev 804 ft 38.18 °N, 84.90 °W | Updated 28 minutes ago

Overcast
Overcast
34 °F
Feels Like 34 °F
N
0
Wind Variable Wind from North

Today
High -- | Low -- °F
--% Chance of Precip.
Yesterday
High -- | Low -- °F
Precip. -- in
7:51 AM 5:22 PM
Waning Crescent, 2% visible
Pressure 30.28 in
Visibility 9.0 miles
Clouds Mostly Cloudy 1900 ft
Mostly Cloudy 2900 ft
Overcast 5000 ft
Dew Point 24 °F
Humidity 67%
Rainfall 0.00 in
Snow Depth Not available.
UV 1 out of 12
Pollen .10 out of 12
Air Quality Not available.
Flu Activity Not available.
METAR KFFT 201753Z AUTO 00000KT 9SM BKN019 BKN029 OVC050 01/M04 A3025 RMK AO2 SLP252 T00111044 10011 21022 58008

More Conditions Fewer Conditions

Pressure 30.28 in
Visibility 9.0 miles
Clouds Mostly Cloudy 1900 ft
Mostly Cloudy 2900 ft
Overcast 5000 ft
Dew Point 24 °F
Humidity 67%
Rainfall 0.00 in
Snow Depth Not available.
UV 1 out of 12
Pollen .10 out of 12
Air Quality Not available.
Flu Activity Not available.
METAR KFFT 201753Z AUTO 00000KT 9SM BKN019 BKN029 OVC050 01/M04 A3025 RMK AO2 SLP252 T00111044 10011 21022 58008

More Conditions Fewer Conditions

10-Day Weather Forecast

Almanac

Astronomy

Dec. 20, 2014 Rise Set
Actual Time
Civil Twilight
Nautical Twilight
Astronomical Twilight
Moon
Length of Visible Light
Length of Day
Tomorrow will be .
, % of the Moon is Illuminated

Today's Extremes

State Highs State Lows

Community

WunderPhotos

Upload Photos

1,779,238 photos uploaded!

WunderBlogs® & News

Nearby

Air Quality

  Air Quality AQ Index Pollutant
Not available.

Snow Depth

Station Depth Elevation

Earthquake Activity

City Distance Mag. Time & Date
Minimum magnitude displayed is 2.5.

Coastal Water Temperatures

Place Temperature

Nearby Weather Stations